Time;durP1;ratioP1;P1;durP2;ratioP2;P2;SDS_P1;SDS_P2;PMS_P1;PMS_P2;Temp;Humidity;BMP_temperature;BMP_pressure;BME280_temperature;BME280_humidity;BME280_pressure;Samples;Min_cycle;Max_cycle;Signal;HPM_P1;HPM_P2
2021/09/02 00:00:54;;;;;;;;;;;;;;;12.15;79.60;100280.50;5097301;28;19924;-71
2021/09/02 00:03:23;;;;;;;;;;;;;;;12.18;80.01;100271.13;5097015;28;19928;-71
2021/09/02 00:05:55;;;;;;;;;;;;;;;12.15;79.71;100263.44;5097036;28;19930;-71
2021/09/02 00:08:27;;;;;;;;;;;;;;;12.12;80.14;100272.84;5096959;28;19924;-71
2021/09/02 00:10:59;;;;;;;;;;;;;;;12.14;80.24;100269.41;5096771;28;19931;-71
2021/09/02 00:13:33;;;;;;;;;;;;;;;12.17;79.95;100273.69;5096761;28;19924;-71
2021/09/02 00:16:05;;;;;;;;;;;;;;;12.05;80.03;100270.25;5096819;28;19924;-71
2021/09/02 00:18:38;;;;;;;;;;;;;;;11.96;80.22;100270.22;5097084;28;19985;-71
2021/09/02 00:21:11;;;;;;;;;;;;;;;11.99;80.40;100269.38;5096652;28;19950;-71
2021/09/02 00:23:40;;;;;;;;;;;;;;;12.02;80.34;100272.78;5096647;28;19931;-70
2021/09/02 00:26:14;;;;;;;;;;;;;;;11.96;80.46;100277.91;5096626;28;19967;-70
2021/09/02 00:28:45;;;;;;;;;;;;;;;11.89;80.31;100278.72;5096572;28;19935;-70
2021/09/02 00:31:17;;;;;;;;;;;;;;;11.88;80.48;100281.28;5096629;28;19969;-71
2021/09/02 00:33:52;;;;;;;;;;;;;;;11.88;80.54;100292.34;5096710;28;19924;-71
2021/09/02 00:36:24;;;;;;;;;;;;;;;11.79;80.57;100287.22;5096396;28;19931;-71
2021/09/02 00:38:59;;;;;;;;;;;;;;;11.72;80.56;100289.75;5096707;28;19936;-71
2021/09/02 00:41:31;;;;;;;;;;;;;;;11.76;80.77;100282.06;5096264;28;19924;-70
2021/09/02 00:44:04;;;;;;;;;;;;;;;11.75;80.79;100275.28;5096229;28;19924;-71
2021/09/02 00:46:36;;;;;;;;;;;;;;;11.81;81.16;100282.97;5096238;28;19928;-71
2021/09/02 00:49:08;;;;;;;;;;;;;;;11.76;80.86;100276.97;5096043;28;19927;-71
2021/09/02 00:51:37;;;;;;;;;;;;;;;11.90;81.21;100284.72;5095291;28;19924;-71
2021/09/02 00:54:06;;;;;;;;;;;;;;;11.89;80.94;100283.84;5095910;28;20015;-72
2021/09/02 00:56:35;;;;;;;;;;;;;;;11.93;81.11;100290.69;5095931;28;19928;-71
2021/09/02 00:59:05;;;;;;;;;;;;;;;11.98;80.89;100278.75;5095882;28;20023;-71
2021/09/02 01:01:34;;;;;;;;;;;;;;;11.83;81.05;100283.81;5096243;28;19928;-71
2021/09/02 01:04:04;;;;;;;;;;;;;;;11.75;80.91;100280.38;5095874;28;19969;-71
2021/09/02 01:06:35;;;;;;;;;;;;;;;11.70;80.57;100283.75;5095896;28;19924;-71
2021/09/02 01:09:04;;;;;;;;;;;;;;;11.60;80.89;100270.06;5095823;28;20081;-71
2021/09/02 01:11:49;;;;;;;;;;;;;;;11.61;81.03;100271.78;5095745;28;19924;-71
2021/09/02 01:14:20;;;;;;;;;;;;;;;11.59;80.89;100270.88;5095957;28;19975;-71
2021/09/02 01:16:49;;;;;;;;;;;;;;;11.55;80.83;100276.84;5095720;28;19930;-71
2021/09/02 01:19:17;;;;;;;;;;;;;;;11.48;80.95;100281.91;5095610;28;19924;-71
2021/09/02 01:21:48;;;;;;;;;;;;;;;11.46;80.82;100284.47;5095557;28;20362;-71
2021/09/02 01:24:18;;;;;;;;;;;;;;;11.59;81.34;100290.50;5095806;28;19963;-71
2021/09/02 01:26:48;;;;;;;;;;;;;;;11.77;81.19;100276.13;5095518;28;19931;-71
2021/09/02 01:29:16;;;;;;;;;;;;;;;11.79;80.77;100282.09;5095724;28;19930;-71
2021/09/02 01:31:45;;;;;;;;;;;;;;;11.67;81.01;100282.00;5095330;28;19924;-71
2021/09/02 01:34:17;;;;;;;;;;;;;;;11.71;80.96;100273.53;5095295;28;19953;-71
2021/09/02 01:36:47;;;;;;;;;;;;;;;11.67;80.83;100282.00;5095618;28;19924;-71
2021/09/02 01:39:19;;;;;;;;;;;;;;;11.60;80.86;100271.75;5095229;28;19924;-71
2021/09/02 01:41:48;;;;;;;;;;;;;;;11.55;81.10;100276.84;5095195;28;19928;-71
2021/09/02 01:44:19;;;;;;;;;;;;;;;11.50;80.96;100283.63;5095183;28;20388;-71
2021/09/02 01:46:47;;;;;;;;;;;;;;;11.42;80.89;100278.47;5095101;28;19963;-71
2021/09/02 01:49:20;;;;;;;;;;;;;;;11.39;81.21;100270.81;5095090;28;19924;-71
2021/09/02 01:51:48;;;;;;;;;;;;;;;11.47;81.57;100267.44;5094776;28;19924;-71
2021/09/02 01:54:17;;;;;;;;;;;;;;;11.44;81.57;100263.16;5094800;28;19931;-71
2021/09/02 01:56:47;;;;;;;;;;;;;;;11.49;81.43;100265.75;5095201;28;20388;-71
2021/09/02 01:59:16;;;;;;;;;;;;;;;11.45;81.67;100263.16;5095224;28;19924;-71
2021/09/02 02:01:46;;;;;;;;;;;;;;;11.43;81.80;100271.66;5094752;28;19924;-71
2021/09/02 02:04:14;;;;;;;;;;;;;;;11.41;81.84;100263.13;5094614;28;19924;-71
2021/09/02 02:06:43;;;;;;;;;;;;;;;11.46;82.06;100256.34;5094681;28;19963;-71
2021/09/02 02:09:11;;;;;;;;;;;;;;;11.55;82.19;100248.72;5094697;28;19924;-71
2021/09/02 02:11:40;;;;;;;;;;;;;;;11.60;82.36;100259.81;5094637;28;19992;-71
2021/09/02 02:14:11;;;;;;;;;;;;;;;11.63;82.53;100247.06;5094796;28;20027;-71
2021/09/02 02:16:43;;;;;;;;;;;;;;;11.69;82.55;100249.66;5094643;28;19982;-71
2021/09/02 02:19:12;;;;;;;;;;;;;;;11.84;82.60;100243.75;5094543;28;19971;-71
2021/09/02 02:21:40;;;;;;;;;;;;;;;11.92;82.70;100248.06;5094492;28;19924;-71
2021/09/02 02:24:09;;;;;;;;;;;;;;;11.99;82.69;100249.78;5094380;28;20011;-71
2021/09/02 02:26:38;;;;;;;;;;;;;;;12.15;82.41;100252.34;5094398;28;19924;-71
2021/09/02 02:29:06;;;;;;;;;;;;;;;12.16;82.29;100246.41;5094694;28;20314;-71
2021/09/02 02:31:36;;;;;;;;;;;;;;;12.25;81.80;100256.66;5094343;28;19980;-71
2021/09/02 02:34:05;;;;;;;;;;;;;;;12.31;82.08;100254.13;5094512;28;20022;-71
2021/09/02 02:36:34;;;;;;;;;;;;;;;12.32;81.93;100258.34;5094266;28;20357;-71
2021/09/02 02:39:02;;;;;;;;;;;;;;;12.36;81.98;100254.94;5094230;28;19924;-71
2021/09/02 02:41:31;;;;;;;;;;;;;;;12.41;81.59;100266.03;5094517;28;19977;-71
2021/09/02 02:44:00;;;;;;;;;;;;;;;12.50;81.48;100248.16;5094093;28;20431;-71
2021/09/02 02:46:28;;;;;;;;;;;;;;;12.50;81.18;100255.84;5094437;28;20331;-71
2021/09/02 02:48:59;;;;;;;;;;;;;;;12.44;81.13;100255.81;5094076;28;19924;-71
2021/09/02 02:51:27;;;;;;;;;;;;;;;12.41;81.42;100253.25;5094230;28;19986;-71
2021/09/02 02:53:56;;;;;;;;;;;;;;;12.38;81.26;100245.59;5094008;28;20446;-71
2021/09/02 02:56:25;;;;;;;;;;;;;;;12.46;81.17;100248.97;5094005;28;19924;-71
2021/09/02 02:58:53;;;;;;;;;;;;;;;12.33;81.31;100249.84;5094028;28;19924;-71
2021/09/02 03:01:22;;;;;;;;;;;;;;;12.22;80.70;100256.63;5094074;28;19924;-71
2021/09/02 03:03:51;;;;;;;;;;;;;;;12.18;81.09;100260.03;5093977;28;19924;-71
2021/09/02 03:06:21;;;;;;;;;;;;;;;12.12;80.87;100244.69;5093934;28;19924;-71
2021/09/02 03:08:49;;;;;;;;;;;;;;;12.13;81.15;100254.91;5094017;28;20452;-71
2021/09/02 03:11:18;;;;;;;;;;;;;;;12.05;80.78;100254.03;5093951;28;19924;-71
2021/09/02 03:13:47;;;;;;;;;;;;;;;11.99;80.71;100264.28;5097644;28;19928;-71
2021/09/02 03:16:15;;;;;;;;;;;;;;;11.99;80.82;100249.78;5097750;28;19924;-71
2021/09/02 03:18:44;;;;;;;;;;;;;;;11.89;80.68;100248.03;5098521;28;19928;-71
2021/09/02 03:21:13;;;;;;;;;;;;;;;11.93;81.12;100256.56;5097885;28;19960;-71
2021/09/02 03:23:43;;;;;;;;;;;;;;;11.91;81.14;100248.91;5097832;28;20290;-71
2021/09/02 03:26:13;;;;;;;;;;;;;;;11.93;81.27;100254.88;5097809;28;19960;-71
2021/09/02 03:28:41;;;;;;;;;;;;;;;11.92;81.10;100253.16;5098078;28;19956;-71
2021/09/02 03:31:10;;;;;;;;;;;;;;;11.73;80.82;100255.66;5097675;28;20391;-71
2021/09/02 03:33:39;;;;;;;;;;;;;;;11.70;81.25;100260.75;5097630;28;19931;-71
2021/09/02 03:36:07;;;;;;;;;;;;;;;11.71;81.51;100257.34;5097443;28;19931;-71
2021/09/02 03:38:36;;;;;;;;;;;;;;;11.66;81.21;100253.91;5097644;28;20035;-70
2021/09/02 03:41:06;;;;;;;;;;;;;;;11.61;81.33;100251.31;5097510;28;19928;-71
2021/09/02 03:43:35;;;;;;;;;;;;;;;11.45;81.31;100249.53;5097546;28;20026;-71
2021/09/02 03:46:03;;;;;;;;;;;;;;;11.42;81.49;100250.34;5097630;28;19931;-71
2021/09/02 03:48:32;;;;;;;;;;;;;;;11.40;81.55;100251.19;5097357;28;19928;-71
2021/09/02 03:51:01;;;;;;;;;;;;;;;11.36;81.36;100258.00;5097036;28;20073;-71
2021/09/02 03:53:29;;;;;;;;;;;;;;;11.41;81.86;100256.34;5097236;28;19924;-71
2021/09/02 03:55:58;;;;;;;;;;;;;;;11.44;81.64;100252.94;5097355;28;19923;-71
2021/09/02 03:58:28;;;;;;;;;;;;;;;11.40;81.82;100257.16;5097153;28;19930;-71
2021/09/02 04:00:56;;;;;;;;;;;;;;;11.41;81.65;100258.03;5097474;28;19931;-71
2021/09/02 04:03:25;;;;;;;;;;;;;;;11.28;81.73;100261.34;5097107;28;20022;-71
2021/09/02 04:05:54;;;;;;;;;;;;;;;11.31;82.12;100263.94;5096992;28;19924;-71
2021/09/02 04:08:23;;;;;;;;;;;;;;;11.38;82.01;100258.00;5096898;28;19967;-70
2021/09/02 04:10:51;;;;;;;;;;;;;;;11.55;82.11;100251.28;5097247;28;20373;-71
2021/09/02 04:13:20;;;;;;;;;;;;;;;11.61;81.56;100258.13;5096944;28;20027;-71
2021/09/02 04:15:50;;;;;;;;;;;;;;;11.47;81.62;100255.50;5096701;28;20014;-71
2021/09/02 04:18:20;;;;;;;;;;;;;;;11.41;81.78;100258.03;5097076;28;19924;-71
2021/09/02 04:20:49;;;;;;;;;;;;;;;11.35;81.36;100260.53;5096757;28;19931;-71
2021/09/02 04:23:18;;;;;;;;;;;;;;;11.33;81.64;100259.69;5096493;28;19928;-70
2021/09/02 04:25:46;;;;;;;;;;;;;;;11.24;81.90;100259.63;5096885;28;20015;-70
2021/09/02 04:28:15;;;;;;;;;;;;;;;11.24;81.47;100267.31;5096623;28;19935;-70
2021/09/02 04:30:44;;;;;;;;;;;;;;;11.23;81.93;100263.88;5096933;28;19931;-70
2021/09/02 04:33:14;;;;;;;;;;;;;;;11.33;82.44;100275.88;5096551;28;20366;-70
2021/09/02 04:35:43;;;;;;;;;;;;;;;11.42;82.07;100270.81;5096411;28;20381;-70
2021/09/02 04:38:11;;;;;;;;;;;;;;;11.38;81.95;100273.34;5096293;28;20018;-70
2021/09/02 04:40:40;;;;;;;;;;;;;;;11.35;82.33;100273.31;5097207;28;20362;-70
2021/09/02 04:43:08;;;;;;;;;;;;;;;11.38;82.36;100269.09;5096535;28;20020;-70
2021/09/02 04:45:37;;;;;;;;;;;;;;;11.43;82.46;100271.66;5096233;28;19928;-70
2021/09/02 04:48:14;;;;;;;;;;;;;;;11.46;82.30;100271.69;5096429;28;19963;-71
2021/09/02 04:50:43;;;;;;;;;;;;;;;11.48;82.39;100271.69;5096212;28;20002;-70
2021/09/02 04:53:13;;;;;;;;;;;;;;;11.57;82.46;100267.47;5096150;28;19931;-70
2021/09/02 04:55:41;;;;;;;;;;;;;;;11.65;82.76;100273.50;5095995;28;19924;-70
2021/09/02 04:58:10;;;;;;;;;;;;;;;11.65;82.56;100275.19;5095868;28;20037;-71
2021/09/02 05:00:40;;;;;;;;;;;;;;;11.69;82.55;100275.22;5095944;28;20446;-70
2021/09/02 05:03:09;;;;;;;;;;;;;;;11.72;82.92;100275.25;5095913;28;20014;-70
2021/09/02 05:05:40;;;;;;;;;;;;;;;11.79;82.69;100282.09;5095949;28;19974;-71
2021/09/02 05:08:08;;;;;;;;;;;;;;;11.84;82.79;100282.13;5096042;28;20361;-71
2021/09/02 05:10:37;;;;;;;;;;;;;;;11.91;83.30;100294.94;5095990;28;19979;-71
2021/09/02 05:13:05;;;;;;;;;;;;;;;12.04;83.01;100294.13;5095626;28;19935;-71
2021/09/02 05:15:34;;;;;;;;;;;;;;;12.10;83.01;100288.16;5095610;28;19960;-71
2021/09/02 05:18:03;;;;;;;;;;;;;;;12.10;82.81;100288.16;5095547;28;19923;-71
2021/09/02 05:20:32;;;;;;;;;;;;;;;12.14;83.10;100291.59;5095516;28;19924;-71
2021/09/02 05:23:02;;;;;;;;;;;;;;;12.27;82.53;100295.88;5095857;28;19924;-71
2021/09/02 05:25:32;;;;;;;;;;;;;;;12.33;82.39;100290.78;5095550;28;20443;-70
2021/09/02 05:28:00;;;;;;;;;;;;;;;12.45;82.36;100299.31;5095903;28;19924;-71
2021/09/02 05:30:30;;;;;;;;;;;;;;;12.61;82.17;100303.63;5095390;28;19924;-71
2021/09/02 05:32:59;;;;;;;;;;;;;;;12.69;81.86;100308.78;5095345;28;19924;-71
2021/09/02 05:35:28;;;;;;;;;;;;;;;12.71;81.75;100304.50;5094881;28;20437;-72
2021/09/02 05:37:57;;;;;;;;;;;;;;;12.74;81.52;100307.06;5095095;28;19924;-71
2021/09/02 05:40:27;;;;;;;;;;;;;;;12.69;81.49;100306.22;5095380;28;20336;-70
2021/09/02 05:42:56;;;;;;;;;;;;;;;12.67;81.41;100305.34;5096139;28;20275;-71
2021/09/02 05:45:25;;;;;;;;;;;;;;;12.67;81.41;100316.44;5095451;28;20371;-71
2021/09/02 05:47:53;;;;;;;;;;;;;;;12.74;81.46;100312.19;5095670;28;20263;-71
2021/09/02 05:50:22;;;;;;;;;;;;;;;12.82;81.61;100312.16;5095196;28;20034;-71
2021/09/02 05:52:50;;;;;;;;;;;;;;;12.85;80.81;100318.16;5094716;28;19924;-71
2021/09/02 05:55:19;;;;;;;;;;;;;;;12.95;81.45;100314.75;5095207;28;20019;-71
2021/09/02 05:57:49;;;;;;;;;;;;;;;12.95;81.50;100314.75;5095098;28;20297;-71
2021/09/02 06:00:18;;;;;;;;;;;;;;;12.93;81.61;100311.34;5094983;28;19928;-71
2021/09/02 06:02:47;;;;;;;;;;;;;;;12.86;81.60;100317.28;5094773;28;19931;-71
2021/09/02 06:05:15;;;;;;;;;;;;;;;12.79;81.86;100319.00;5094648;28;19931;-71
2021/09/02 06:07:44;;;;;;;;;;;;;;;12.91;81.79;100323.28;5094734;28;19924;-71
2021/09/02 06:10:13;;;;;;;;;;;;;;;12.96;81.82;100311.31;5094605;28;19930;-71
2021/09/02 06:12:41;;;;;;;;;;;;;;;13.04;81.59;100316.44;5094625;28;19924;-71
2021/09/02 06:15:12;;;;;;;;;;;;;;;13.21;81.45;100315.63;5094393;28;19924;-71
2021/09/02 06:17:41;;;;;;;;;;;;;;;13.37;81.61;100317.28;5094502;28;19930;-71
2021/09/02 06:20:11;;;;;;;;;;;;;;;13.49;81.27;100313.00;5094500;28;19959;-71
2021/09/02 06:22:39;;;;;;;;;;;;;;;13.55;80.60;100318.97;5094691;28;19953;-71
2021/09/02 06:25:08;;;;;;;;;;;;;;;13.61;80.73;100324.06;5094407;28;19976;-71
2021/09/02 06:27:37;;;;;;;;;;;;;;;13.65;80.75;100335.19;5094579;28;19924;-71
2021/09/02 06:30:07;;;;;;;;;;;;;;;13.70;80.33;100336.03;5094309;28;19970;-71
2021/09/02 06:32:37;;;;;;;;;;;;;;;13.78;80.51;100337.72;5094095;28;19999;-71
2021/09/02 06:35:07;;;;;;;;;;;;;;;13.86;80.42;100338.56;5094694;28;19928;-71
2021/09/02 06:37:35;;;;;;;;;;;;;;;13.81;80.13;100336.84;5100927;28;19927;-72
2021/09/02 06:40:04;;;;;;;;;;;;;;;13.74;80.36;100335.16;5100371;28;20336;-71
2021/09/02 06:42:33;;;;;;;;;;;;;;;13.80;80.70;100335.13;5104301;28;19931;-71
2021/09/02 06:45:02;;;;;;;;;;;;;;;13.94;80.87;100339.34;5106981;28;19931;-72
2021/09/02 06:47:35;;;;;;;;;;;;;;;13.95;80.64;100345.34;5102736;28;20368;-71
2021/09/02 06:50:10;;;;;;;;;;;;;;;14.00;80.35;100339.34;5115588;28;19924;-72
2021/09/02 06:52:39;;;;;;;;;;;;;;;14.08;80.82;100347.03;5103951;28;19923;-72
2021/09/02 06:55:10;;;;;;;;;;;;;;;14.17;80.88;100346.97;5097146;28;20347;-73
2021/09/02 06:57:39;;;;;;;;;;;;;;;14.26;80.67;100361.47;5112781;28;19953;-72
2021/09/02 07:00:09;;;;;;;;;;;;;;;14.31;80.26;100350.38;5113434;28;19988;-72
2021/09/02 07:02:38;;;;;;;;;;;;;;;14.41;80.56;100358.88;5112651;28;19977;-72
2021/09/02 07:05:10;;;;;;;;;;;;;;;14.55;80.54;100359.66;5113952;28;19930;-72
2021/09/02 07:07:38;;;;;;;;;;;;;;;14.57;79.82;100361.34;5114321;28;20270;-72
2021/09/02 07:10:08;;;;;;;;;;;;;;;14.68;80.01;100359.53;5114502;28;19977;-72
2021/09/02 07:12:36;;;;;;;;;;;;;;;14.75;79.52;100361.25;5114090;28;20326;-71
2021/09/02 07:15:06;;;;;;;;;;;;;;;14.83;79.37;100370.63;5114076;28;20415;-72
2021/09/02 07:17:35;;;;;;;;;;;;;;;14.98;79.37;100367.91;5114437;28;19931;-72
2021/09/02 07:20:04;;;;;;;;;;;;;;;15.15;79.11;100368.63;5114431;28;20419;-72
2021/09/02 07:22:34;;;;;;;;;;;;;;;15.35;78.92;100361.63;5114428;28;19924;-72
2021/09/02 07:25:03;;;;;;;;;;;;;;;15.56;78.84;100374.31;5114222;28;19970;-72
2021/09/02 07:27:33;;;;;;;;;;;;;;;15.62;78.32;100371.66;5114056;28;19924;-72
2021/09/02 07:30:01;;;;;;;;;;;;;;;15.65;77.79;100374.19;5114055;28;19923;-72
2021/09/02 07:32:30;;;;;;;;;;;;;;;15.80;77.81;100371.47;5114277;28;19927;-72
2021/09/02 07:34:59;;;;;;;;;;;;;;;15.94;77.27;100385.06;5114080;28;20026;-71
2021/09/02 07:37:29;;;;;;;;;;;;;;;15.93;76.60;100380.75;5113873;28;19977;-71
2021/09/02 07:40:00;;;;;;;;;;;;;;;15.98;76.73;100378.97;5113928;28;19931;-72
2021/09/02 07:42:28;;;;;;;;;;;;;;;16.09;76.82;100384.88;5114095;28;19930;-71
2021/09/02 07:44:58;;;;;;;;;;;;;;;16.25;76.55;100384.69;5114119;28;19924;-72
2021/09/02 07:47:27;;;;;;;;;;;;;;;16.33;76.30;100385.44;5114327;28;19923;-72
2021/09/02 07:49:56;;;;;;;;;;;;;;;16.43;76.04;100390.47;5114356;28;20026;-72
2021/09/02 07:52:25;;;;;;;;;;;;;;;16.62;75.68;100391.97;5114018;28;19965;-71
2021/09/02 07:54:53;;;;;;;;;;;;;;;16.78;75.20;100382.25;5113917;28;20011;-72
2021/09/02 07:57:23;;;;;;;;;;;;;;;16.94;74.23;100390.63;5113641;28;19927;-72
2021/09/02 07:59:52;;;;;;;;;;;;;;;17.13;73.81;100389.47;5117301;28;20039;-72
2021/09/02 08:02:20;;;;;;;;;;;;;;;17.34;73.37;100389.97;5117429;28;19935;-72
2021/09/02 08:04:50;;;;;;;;;;;;;;;17.58;72.82;100387.88;5117343;28;19931;-71
2021/09/02 08:07:18;;;;;;;;;;;;;;;17.73;71.59;100393.59;5117502;28;20011;-71
2021/09/02 08:09:50;;;;;;;;;;;;;;;17.92;71.01;100389.78;5117652;28;20012;-72
2021/09/02 08:12:19;;;;;;;;;;;;;;;18.13;70.31;100393.69;5117595;28;19924;-72
2021/09/02 08:14:49;;;;;;;;;;;;;;;18.28;69.49;100393.41;5117487;28;19928;-72
2021/09/02 08:17:18;;;;;;;;;;;;;;;18.42;69.00;100395.69;5099083;28;19924;-72
2021/09/02 08:19:46;;;;;;;;;;;;;;;18.54;68.08;100396.31;5117010;28;20011;-72
2021/09/02 08:22:15;;;;;;;;;;;;;;;18.55;67.68;100392.81;5116889;28;19923;-72
2021/09/02 08:24:44;;;;;;;;;;;;;;;18.57;67.55;100398.81;5116880;28;19959;-72
2021/09/02 08:27:12;;;;;;;;;;;;;;;18.61;67.81;100397.03;5116960;28;19932;-72
2021/09/02 08:29:41;;;;;;;;;;;;;;;18.68;66.82;100401.19;5116868;28;19928;-72
2021/09/02 08:32:14;;;;;;;;;;;;;;;18.74;64.66;100388.94;5116819;28;19923;-72
2021/09/02 08:34:45;;;;;;;;;;;;;;;18.80;64.40;100394.88;5116817;28;20288;-72
2021/09/02 08:37:14;;;;;;;;;;;;;;;18.84;63.76;100393.91;5116755;28;20338;-72
2021/09/02 08:39:42;;;;;;;;;;;;;;;18.91;63.22;100387.75;5116856;28;19924;-72
2021/09/02 08:42:14;;;;;;;;;;;;;;;18.94;62.95;100387.63;5116097;28;19980;-72
2021/09/02 08:44:43;;;;;;;;;;;;;;;18.99;62.92;100396.16;5116608;28;19999;-71
2021/09/02 08:47:12;;;;;;;;;;;;;;;19.08;62.76;100393.34;5116389;28;19969;-72
2021/09/02 08:49:43;;;;;;;;;;;;;;;19.17;62.43;100393.16;5116515;28;19928;-72
2021/09/02 08:52:12;;;;;;;;;;;;;;;19.29;62.26;100395.44;5116097;28;19928;-71
2021/09/02 08:54:40;;;;;;;;;;;;;;;19.42;61.67;100388.22;5116424;28;19923;-72
2021/09/02 08:57:09;;;;;;;;;;;;;;;19.56;61.27;100393.88;5116310;28;20385;-71
2021/09/02 08:59:38;;;;;;;;;;;;;;;19.74;60.81;100391.69;5116113;28;20370;-72
2021/09/02 09:02:20;;;;;;;;;;;;;;;20.00;60.78;100388.38;5116591;28;20284;-72
2021/09/02 09:05:01;;;;;;;;;;;;;;;20.26;60.01;100385.94;5116579;28;20373;-72
2021/09/02 09:07:31;;;;;;;;;;;;;;;20.42;58.55;100394.13;5116221;28;19924;-72
2021/09/02 09:10:01;;;;;;;;;;;;;;;20.55;57.37;100390.25;5116124;28;19928;-72
2021/09/02 09:12:33;;;;;;;;;;;;;;;20.50;56.89;100389.53;5115692;28;19964;-72
2021/09/02 09:15:03;;;;;;;;;;;;;;;20.44;56.46;100389.75;5097721;28;19924;-72
2021/09/02 09:17:33;;;;;;;;;;;;;;;20.52;55.58;100393.78;5115970;28;19924;-72
2021/09/02 09:20:05;;;;;;;;;;;;;;;20.80;55.91;100393.81;5115926;28;19930;-72
2021/09/02 09:22:34;;;;;;;;;;;;;;;21.08;55.31;100402.47;5115974;28;19924;-74
2021/09/02 09:25:04;;;;;;;;;;;;;;;21.23;54.29;100399.38;5115826;28;20014;-71
2021/09/02 09:27:38;;;;;;;;;;;;;;;21.29;54.08;100396.56;5115854;28;20282;-72
2021/09/02 09:30:14;;;;;;;;;;;;;;;21.40;54.07;100400.56;5115845;28;19924;-72
2021/09/02 09:32:44;;;;;;;;;;;;;;;21.56;54.37;100392.19;5115642;28;19947;-72
2021/09/02 09:35:15;;;;;;;;;;;;;;;21.74;53.82;100395.94;5115709;28;19946;-71
2021/09/02 09:37:46;;;;;;;;;;;;;;;21.84;52.88;100397.28;5115715;28;19927;-72
2021/09/02 09:40:19;;;;;;;;;;;;;;;21.89;52.90;100401.47;5115899;28;20424;-72
2021/09/02 09:42:58;;;;;;;;;;;;;;;22.01;52.24;100400.16;5115707;28;19931;-73
2021/09/02 09:45:35;;;;;;;;;;;;;;;22.02;51.85;100397.53;5115480;28;19923;-72
2021/09/02 09:48:03;;;;;;;;;;;;;;;22.09;52.07;100398.16;5097612;28;19927;-72
2021/09/02 09:50:33;;;;;;;;;;;;;;;22.19;51.67;100399.53;5115348;28;19924;-73
2021/09/02 09:53:22;;;;;;;;;;;;;;;22.32;51.27;100394.69;5115358;28;20387;-73
2021/09/02 09:55:51;;;;;;;;;;;;;;;22.17;50.25;100398.69;5097119;28;19957;-73
2021/09/02 09:58:22;;;;;;;;;;;;;;;22.15;49.78;100392.72;5115135;28;19924;-72
2021/09/02 10:01:01;;;;;;;;;;;;;;;22.21;49.31;100389.91;5115613;28;19969;-72
2021/09/02 10:03:31;;;;;;;;;;;;;;;22.28;49.75;100386.16;5115068;28;19924;-72
2021/09/02 10:06:03;;;;;;;;;;;;;;;22.22;49.98;100394.19;5115166;28;19931;-72
2021/09/02 10:08:34;;;;;;;;;;;;;;;22.25;49.48;100394.06;5114978;28;19924;-72
2021/09/02 10:11:04;;;;;;;;;;;;;;;22.40;48.74;100387.44;5114942;28;19930;-73
2021/09/02 10:13:33;;;;;;;;;;;;;;;22.49;48.53;100377.53;5114995;28;20441;-71
2021/09/02 10:16:02;;;;;;;;;;;;;;;22.31;48.46;100383.47;5114843;28;19927;-72
2021/09/02 10:18:32;;;;;;;;;;;;;;;21.97;49.26;100394.25;5114803;28;19935;-72
2021/09/02 10:21:03;;;;;;;;;;;;;;;21.92;50.49;100392.69;5113892;28;20429;-72
2021/09/02 10:23:32;;;;;;;;;;;;;;;22.10;50.07;100389.41;5114791;28;20007;-72
2021/09/02 10:26:01;;;;;;;;;;;;;;;22.43;50.86;100393.41;5115009;28;19959;-72
2021/09/02 10:28:31;;;;;;;;;;;;;;;22.76;49.66;100385.22;5114731;28;19930;-72
2021/09/02 10:31:00;;;;;;;;;;;;;;;22.91;48.50;100395.03;5114626;28;19973;-72
2021/09/02 10:33:31;;;;;;;;;;;;;;;22.71;48.13;100388.00;5114705;28;20010;-72
2021/09/02 10:36:04;;;;;;;;;;;;;;;22.66;48.13;100390.78;5115065;28;19927;-73
2021/09/02 10:38:37;;;;;;;;;;;;;;;22.70;48.13;100386.28;5114405;28;19946;-72
2021/09/02 10:41:06;;;;;;;;;;;;;;;22.87;47.88;100386.50;5115021;28;19951;-72
2021/09/02 10:43:46;;;;;;;;;;;;;;;22.98;47.76;100386.06;5114655;28;20435;-72
2021/09/02 10:46:24;;;;;;;;;;;;;;;23.06;47.92;100387.44;5114717;28;19923;-72
2021/09/02 10:48:53;;;;;;;;;;;;;;;23.19;47.24;100396.47;5114510;28;19924;-72
2021/09/02 10:51:31;;;;;;;;;;;;;;;23.21;47.01;100388.59;5114653;28;20026;-71
2021/09/02 10:54:04;;;;;;;;;;;;;;;22.91;47.18;100389.84;5114205;28;19923;-74
2021/09/02 10:56:34;;;;;;;;;;;;;;;22.72;47.87;100383.66;5114234;28;19923;-72
2021/09/02 10:59:03;;;;;;;;;;;;;;;22.83;47.92;100381.47;5114256;28;20030;-73
2021/09/02 11:01:32;;;;;;;;;;;;;;;23.06;47.54;100376.22;5114588;28;19924;-74
2021/09/02 11:04:04;;;;;;;;;;;;;;;23.16;46.21;100372.28;5114203;28;20030;-73
2021/09/02 11:06:42;;;;;;;;;;;;;;;23.10;45.83;100365.59;5114338;28;19938;-71
2021/09/02 11:09:13;;;;;;;;;;;;;;;23.32;46.66;100371.59;5114184;28;19928;-72
2021/09/02 11:11:51;;;;;;;;;;;;;;;23.55;46.80;100362.84;5079214;28;19955;-73
2021/09/02 11:14:19;;;;;;;;;;;;;;;23.79;46.70;100367.00;5114459;28;20373;-72
2021/09/02 11:16:48;;;;;;;;;;;;;;;23.90;46.16;100362.16;5114161;28;19931;-73
2021/09/02 11:19:29;;;;;;;;;;;;;;;23.99;45.56;100363.50;5114170;28;19962;-73
2021/09/02 11:21:58;;;;;;;;;;;;;;;23.98;45.46;100361.81;5114193;28;19930;-73
2021/09/02 11:24:36;;;;;;;;;;;;;;;24.16;45.98;100365.41;5114013;28;20002;-72
2021/09/02 11:27:05;;;;;;;;;;;;;;;24.21;44.73;100353.81;5114181;28;19924;-73
2021/09/02 11:29:33;;;;;;;;;;;;;;;24.06;44.45;100358.84;5114280;28;19928;-72
2021/09/02 11:32:03;;;;;;;;;;;;;;;24.19;43.95;100357.41;5114023;28;19924;-73
2021/09/02 11:34:32;;;;;;;;;;;;;;;24.28;43.54;100359.63;5116792;28;19963;-72
2021/09/02 11:37:01;;;;;;;;;;;;;;;24.39;44.68;100367.78;5118222;28;19924;-73
2021/09/02 11:39:32;;;;;;;;;;;;;;;24.28;43.76;100359.63;5118007;28;20277;-73
2021/09/02 11:42:01;;;;;;;;;;;;;;;24.33;43.29;100357.66;5117914;28;19977;-72
2021/09/02 11:44:32;;;;;;;;;;;;;;;24.51;43.19;100347.19;5117789;28;19924;-73
2021/09/02 11:47:03;;;;;;;;;;;;;;;24.51;42.26;100351.56;5117651;28;19924;-73
2021/09/02 11:49:32;;;;;;;;;;;;;;;24.34;41.91;100356.72;5117847;28;20007;-72
2021/09/02 11:52:01;;;;;;;;;;;;;;;24.28;42.38;100355.22;5117270;28;19927;-72
2021/09/02 11:54:32;;;;;;;;;;;;;;;24.45;42.74;100352.69;5117733;28;19930;-72
2021/09/02 11:57:01;;;;;;;;;;;;;;;24.53;42.61;100349.72;5099413;28;20010;-73
2021/09/02 11:59:29;;;;;;;;;;;;;;;24.61;42.28;100348.44;5117242;28;19963;-73
2021/09/02 12:01:59;;;;;;;;;;;;;;;24.75;41.90;100354.75;5117514;28;19923;-73
2021/09/02 12:04:29;;;;;;;;;;;;;;;24.55;41.55;100350.47;5117693;28;19936;-72
2021/09/02 12:06:59;;;;;;;;;;;;;;;24.51;43.22;100351.56;5117607;28;19931;-72
2021/09/02 12:09:30;;;;;;;;;;;;;;;24.53;42.25;100349.72;5117239;28;19924;-72
2021/09/02 12:12:01;;;;;;;;;;;;;;;24.48;41.76;100352.53;5117279;28;19924;-73
2021/09/02 12:14:31;;;;;;;;;;;;;;;24.51;41.23;100347.19;5117421;28;19966;-72
2021/09/02 12:17:01;;;;;;;;;;;;;;;24.53;41.56;100350.56;5117173;28;20280;-73
2021/09/02 12:19:29;;;;;;;;;;;;;;;24.51;41.39;100341.13;5116746;28;19931;-73
2021/09/02 12:22:09;;;;;;;;;;;;;;;24.60;41.51;100345.88;5116932;28;19924;-74
2021/09/02 12:24:38;;;;;;;;;;;;;;;24.79;41.43;100351.09;5117352;28;20341;-73
2021/09/02 12:27:08;;;;;;;;;;;;;;;24.84;40.73;100333.44;5117152;28;19931;-73
2021/09/02 12:29:46;;;;;;;;;;;;;;;24.88;40.49;100338.47;5117295;28;20289;-73
2021/09/02 12:32:15;;;;;;;;;;;;;;;24.87;40.11;100349.84;5116569;28;19924;-73
2021/09/02 12:34:44;;;;;;;;;;;;;;;24.74;39.25;100337.41;5116796;28;19924;-75
2021/09/02 12:37:13;;;;;;;;;;;;;;;24.64;39.52;100344.84;5116860;28;19928;-74
2021/09/02 12:39:49;;;;;;;;;;;;;;;24.64;39.68;100343.06;5116800;28;19981;-73
2021/09/02 12:42:23;;;;;;;;;;;;;;;24.58;39.80;100347.72;5116670;28;20010;-73
2021/09/02 12:45:03;;;;;;;;;;;;;;;24.56;39.67;100349.56;5116418;28;19930;-72
2021/09/02 12:47:31;;;;;;;;;;;;;;;24.50;39.27;100339.41;5116663;28;20027;-74
2021/09/02 12:50:00;;;;;;;;;;;;;;;24.09;40.23;100338.72;5116986;28;20014;-73